Freeland, Washington
Current Conditions -  °F | °C
As of 3:53 AM on Friday 31 Oct 2014 (Local Time) from KPAE Reporting Station
Light Rain Light Rain  
Wind Chill: 51°   Ceiling: 1400
Heat Index: 51°   Visibility: 8mi
Dew Point: 48°   Wind: 3mph
Humidity: 89%   Direction: 10°N
Pressure: 29.73"   Gusts: NA
Location:  48.01°N, 122.53°W
Report Text: KPAE 311053Z AUTO 01003KT 8SM -RA BKN014 BKN021 OVC055 11/09 A2973 RMK AO2 SLP069 P0003 T01060089
Loading
Personal Weather Stations






























Interactive Weather Map
Tropical Storm Tracking
New forecast layout! Learn more

10-Day Weather Forecast

Advertisements
Track Severe Weather on mobile